createdAt,value
2022-12-31T00:00:34.488Z,99402.16
2022-12-31T00:03:02.506Z,99403.50
2022-12-31T00:05:33.185Z,99398.47
2022-12-31T00:08:02.092Z,99383.22
2022-12-31T00:10:30.293Z,99361.84
2022-12-31T00:12:58.381Z,99395.53
2022-12-31T00:15:26.743Z,99384.59
2022-12-31T00:17:54.623Z,99394.44
2022-12-31T00:20:22.551Z,99388.31
2022-12-31T00:22:51.866Z,99389.91
2022-12-31T00:25:20.118Z,99385.63
2022-12-31T00:27:47.925Z,99358.44
2022-12-31T00:30:16.309Z,99364.59
2022-12-31T00:32:44.290Z,99364.84
2022-12-31T00:35:12.116Z,99369.63
2022-12-31T00:37:40.738Z,99358.97
2022-12-31T00:40:11.972Z,99343.78
2022-12-31T00:42:39.806Z,99356.31
2022-12-31T00:45:09.351Z,99310.41
2022-12-31T00:47:37.151Z,99347.81
2022-12-31T00:50:05.475Z,99359.78
2022-12-31T00:52:33.654Z,99343.50
2022-12-31T00:55:01.555Z,99344.06
2022-12-31T00:57:30.950Z,99340.34
2022-12-31T00:59:59.326Z,99386.75
2022-12-31T01:02:27.140Z,99370.50
2022-12-31T01:04:55.121Z,99374.22
2022-12-31T01:07:22.883Z,99388.09
2022-12-31T01:09:50.729Z,99395.84
2022-12-31T01:12:18.509Z,99393.19
2022-12-31T01:14:47.947Z,99391.84
2022-12-31T01:17:17.214Z,99375.31
2022-12-31T01:19:44.969Z,99345.94
2022-12-31T01:22:12.722Z,99400.66
2022-12-31T01:24:40.419Z,99402.00
2022-12-31T01:27:08.405Z,99384.91
2022-12-31T01:29:37.523Z,99401.44
2022-12-31T01:32:07.161Z,99422.00
2022-12-31T01:34:34.991Z,99404.38
2022-12-31T01:37:03.027Z,99406.53
2022-12-31T01:39:30.777Z,99433.75
2022-12-31T01:41:59.573Z,99434.31
2022-12-31T01:44:50.341Z,99430.56
2022-12-31T01:47:25.915Z,99405.44
2022-12-31T01:50:00.281Z,99460.72
2022-12-31T01:52:32.023Z,99444.44
2022-12-31T01:55:05.268Z,99457.25
2022-12-31T01:57:33.731Z,99451.13
2022-12-31T02:00:02.959Z,99458.84
2022-12-31T02:02:32.804Z,99451.91
2022-12-31T02:05:04.409Z,99423.88
2022-12-31T02:07:32.795Z,99458.34
2022-12-31T02:10:01.229Z,99412.66
2022-12-31T02:12:29.077Z,99443.63
2022-12-31T02:14:57.845Z,99436.41
2022-12-31T02:17:35.117Z,99478.06
2022-12-31T02:20:37.979Z,99492.50
2022-12-31T02:23:26.519Z,99466.88
2022-12-31T02:26:15.767Z,99468.75
2022-12-31T02:29:13.328Z,99479.69
2022-12-31T02:31:47.437Z,99458.31
2022-12-31T02:34:27.224Z,99420.94
2022-12-31T02:36:58.530Z,99454.59
2022-12-31T02:39:27.007Z,99448.44
2022-12-31T02:41:54.806Z,99428.38
2022-12-31T02:44:25.559Z,99431.56
2022-12-31T02:47:07.205Z,99461.53
2022-12-31T02:49:42.029Z,99454.59
2022-12-31T02:52:19.467Z,99463.13
2022-12-31T02:54:58.515Z,99457.25
2022-12-31T02:57:31.870Z,99440.97
2022-12-31T03:00:22.216Z,99464.47
2022-12-31T03:02:53.860Z,99457.25
2022-12-31T03:05:25.307Z,99471.13
2022-12-31T03:07:53.112Z,99457.78
2022-12-31T03:10:21.214Z,99429.22
2022-12-31T03:12:48.809Z,99447.38
2022-12-31T03:15:23.111Z,99447.66
2022-12-31T03:18:05.594Z,99466.59
2022-12-31T03:20:52.808Z,99478.06
2022-12-31T03:23:24.158Z,99465.78
2022-12-31T03:25:51.394Z,99455.09
2022-12-31T03:28:21.475Z,99434.03
2022-12-31T03:30:52.923Z,99448.97
2022-12-31T03:33:23.599Z,99466.06
2022-12-31T03:35:52.339Z,99430.56
2022-12-31T03:38:21.324Z,99432.44
2022-12-31T03:40:51.098Z,99462.59
2022-12-31T03:43:19.329Z,99458.34
2022-12-31T03:45:50.704Z,99453.50
2022-12-31T03:48:19.140Z,99444.97
2022-12-31T03:50:48.980Z,99396.94
2022-12-31T03:53:17.911Z,99467.97
2022-12-31T03:55:45.763Z,99459.13
2022-12-31T03:58:13.975Z,99470.91
2022-12-31T04:00:42.419Z,99484.25
2022-12-31T04:03:10.543Z,99476.47
2022-12-31T04:05:38.294Z,99501.59
2022-12-31T04:08:08.164Z,99462.03
2022-12-31T04:10:36.030Z,99429.75
2022-12-31T04:13:04.668Z,99448.69
2022-12-31T04:15:33.555Z,99486.63
2022-12-31T04:18:01.396Z,99460.75
2022-12-31T04:20:29.227Z,99507.50
2022-12-31T04:22:57.578Z,99497.84
2022-12-31T04:25:26.932Z,99500.53
2022-12-31T04:27:55.031Z,99504.56
2022-12-31T04:30:23.436Z,99524.03
2022-12-31T04:32:51.347Z,99508.53
2022-12-31T04:35:19.406Z,99523.53
2022-12-31T04:37:48.168Z,99532.34
2022-12-31T04:40:16.042Z,99501.09
2022-12-31T04:42:45.349Z,99497.06
2022-12-31T04:45:13.855Z,99532.59
2022-12-31T04:47:41.691Z,99505.63
2022-12-31T04:50:11.909Z,99513.88
2022-12-31T04:52:42.915Z,99519.78
2022-12-31T04:55:12.179Z,99552.34
2022-12-31T04:57:40.554Z,99525.63
2022-12-31T05:00:11.631Z,99557.19
2022-12-31T05:02:39.749Z,99548.09
2022-12-31T05:05:08.364Z,99564.13
2022-12-31T05:07:36.171Z,99583.63
2022-12-31T05:10:04.302Z,99568.94
2022-12-31T05:12:32.488Z,99572.13
2022-12-31T05:15:00.404Z,99553.16
2022-12-31T05:17:29.622Z,99541.16
2022-12-31T05:20:00.457Z,99560.94
2022-12-31T05:22:31.217Z,99539.56
2022-12-31T05:24:59.847Z,99546.50
2022-12-31T05:27:31.627Z,99581.22
2022-12-31T05:29:59.656Z,99539.00
2022-12-31T05:32:29.097Z,99554.50
2022-12-31T05:34:58.196Z,99557.97
2022-12-31T05:37:26.398Z,99540.59
2022-12-31T05:39:54.327Z,99558.47
2022-12-31T05:42:22.852Z,99549.41
2022-12-31T05:44:50.983Z,99579.59
2022-12-31T05:47:19.145Z,99578.25
2022-12-31T05:49:49.107Z,99575.59
2022-12-31T05:52:17.099Z,99564.63
2022-12-31T05:54:45.087Z,99572.09
2022-12-31T05:57:13.621Z,99579.03
2022-12-31T05:59:41.373Z,99590.28
2022-12-31T06:02:09.431Z,99595.06
2022-12-31T06:04:37.812Z,99571.59
2022-12-31T06:07:07.086Z,99596.44
2022-12-31T06:09:34.840Z,99549.97
2022-12-31T06:12:03.256Z,99573.72
2022-12-31T06:14:31.085Z,99604.19
2022-12-31T06:16:59.241Z,99565.44
2022-12-31T06:19:27.921Z,99561.16
2022-12-31T06:21:55.683Z,99577.72
2022-12-31T06:24:25.029Z,99580.94
2022-12-31T06:26:53.346Z,99574.25
2022-12-31T06:29:21.172Z,99601.50
2022-12-31T06:31:49.048Z,99592.94
2022-12-31T06:34:17.422Z,99602.59
2022-12-31T06:36:45.279Z,99598.31
2022-12-31T06:39:13.091Z,99586.81
2022-12-31T06:41:42.841Z,99588.69
2022-12-31T06:44:10.661Z,99621.00
2022-12-31T06:46:38.492Z,99573.72
2022-12-31T06:49:06.894Z,99609.00
2022-12-31T06:51:34.665Z,99579.63
2022-12-31T06:54:02.509Z,99624.75
2022-12-31T06:56:34.851Z,99619.41
2022-12-31T06:59:05.615Z,99649.91
2022-12-31T07:01:50.669Z,99628.78
2022-12-31T07:04:39.462Z,99636.78
2022-12-31T07:07:16.942Z,99617.56
2022-12-31T07:09:52.977Z,99626.09
2022-12-31T07:12:35.796Z,99584.16
2022-12-31T07:15:07.447Z,99657.16
2022-12-31T07:17:45.783Z,99647.25
2022-12-31T07:20:15.595Z,99645.38
2022-12-31T07:22:45.190Z,99662.47
2022-12-31T07:25:16.996Z,99597.75
2022-12-31T07:27:58.139Z,99596.69
2022-12-31T07:30:35.822Z,99629.31
2022-12-31T07:33:16.587Z,99639.22
2022-12-31T07:35:55.315Z,99647.22
2022-12-31T07:38:31.127Z,99646.94
2022-12-31T07:41:09.959Z,99659.25
2022-12-31T07:43:47.728Z,99661.38
2022-12-31T07:46:26.620Z,99683.56
2022-12-31T07:48:54.962Z,99694.78
2022-12-31T07:51:23.517Z,99681.41
2022-12-31T07:53:51.474Z,99682.22
2022-12-31T07:56:19.405Z,99669.66
2022-12-31T07:58:58.347Z,99666.75
2022-12-31T08:01:37.522Z,99674.78
2022-12-31T08:04:16.528Z,99668.88
2022-12-31T08:06:51.638Z,99665.16
2022-12-31T08:09:33.226Z,99673.19
2022-12-31T08:12:02.848Z,99690.53
2022-12-31T08:14:31.435Z,99671.53
2022-12-31T08:17:01.539Z,99673.16
2022-12-31T08:19:32.218Z,99669.13
2022-12-31T08:22:18.253Z,99679.03
2022-12-31T08:24:59.203Z,99710.06
2022-12-31T08:27:37.446Z,99740.00
2022-12-31T08:30:09.658Z,99736.53
2022-12-31T08:32:44.949Z,99705.75
2022-12-31T08:35:22.354Z,99716.47
2022-12-31T08:37:56.224Z,99695.06
2022-12-31T08:40:29.442Z,99712.72
2022-12-31T08:43:18.191Z,99738.16
2022-12-31T08:45:49.723Z,99756.06
2022-12-31T08:48:27.742Z,99739.22
2022-12-31T08:50:55.892Z,99768.38
2022-12-31T08:53:24.128Z,99775.59
2022-12-31T08:55:59.303Z,99770.53
2022-12-31T08:58:41.038Z,99802.06
2022-12-31T09:01:11.057Z,99790.31
2022-12-31T09:06:44.108Z,99795.44
2022-12-31T09:09:20.278Z,99790.56
2022-12-31T09:11:59.083Z,99779.06
2022-12-31T09:14:42.725Z,99778.78
2022-12-31T09:17:26.340Z,99798.91
2022-12-31T09:19:54.682Z,99807.44
2022-12-31T09:22:24.911Z,99792.75
2022-12-31T09:24:53.743Z,99796.19
2022-12-31T09:27:29.249Z,99800.50
2022-12-31T09:30:04.045Z,99816.56
2022-12-31T09:32:42.927Z,99809.06
2022-12-31T09:35:21.059Z,99784.94
2022-12-31T09:37:52.447Z,99802.63
2022-12-31T09:41:11.247Z,99806.34
2022-12-31T09:44:21.535Z,99817.66
2022-12-31T09:47:25.004Z,99830.47
2022-12-31T09:50:18.868Z,99798.34
2022-12-31T09:53:20.547Z,99788.75
2022-12-31T09:55:53.776Z,99806.94
2022-12-31T09:58:37.980Z,99827.56
2022-12-31T10:01:19.113Z,99786.88
2022-12-31T10:04:26.944Z,99783.41
2022-12-31T10:07:05.509Z,99769.75
2022-12-31T10:09:54.506Z,99800.81
2022-12-31T10:12:59.071Z,99788.75
2022-12-31T10:15:49.891Z,99804.28
2022-12-31T10:18:31.147Z,99810.94
2022-12-31T10:21:15.019Z,99828.63
2022-12-31T10:24:16.797Z,99834.50
2022-12-31T10:27:00.896Z,99838.00
2022-12-31T10:29:42.011Z,99825.69
2022-12-31T10:32:19.023Z,99809.09
2022-12-31T10:34:55.769Z,99838.28
2022-12-31T10:37:29.512Z,99834.78
2022-12-31T10:40:16.863Z,99844.94
2022-12-31T10:43:18.287Z,99846.81
2022-12-31T10:46:19.133Z,99831.84
2022-12-31T10:49:26.458Z,99854.56
2022-12-31T10:52:43.354Z,99860.47
2022-12-31T10:55:48.145Z,99828.38
2022-12-31T10:58:46.857Z,99835.31
2022-12-31T11:01:21.735Z,99795.19
2022-12-31T11:04:21.017Z,99844.41
2022-12-31T11:07:08.116Z,99874.38
2022-12-31T11:10:16.970Z,99872.50
2022-12-31T11:13:13.799Z,99883.47
2022-12-31T11:16:04.415Z,99891.78
2022-12-31T11:18:44.991Z,99859.34
2022-12-31T11:21:28.752Z,99891.47
2022-12-31T11:24:04.500Z,99893.66
2022-12-31T11:26:45.297Z,99895.25
2022-12-31T11:29:25.519Z,99888.81
2022-12-31T11:32:16.640Z,99900.88
2022-12-31T11:35:11.251Z,99902.19
2022-12-31T11:37:46.291Z,99886.94
2022-12-31T11:40:32.368Z,99867.38
2022-12-31T11:43:03.043Z,99889.34
2022-12-31T11:45:50.842Z,99874.34
2022-12-31T11:48:30.596Z,99888.28
2022-12-31T11:51:16.219Z,99870.38
2022-12-31T11:54:14.508Z,99878.41
2022-12-31T11:56:55.299Z,99855.13
2022-12-31T11:59:23.220Z,99857.78
2022-12-31T12:01:57.088Z,99866.09
2022-12-31T12:04:25.108Z,99860.19
2022-12-31T12:06:54.631Z,99844.13
2022-12-31T12:09:28.307Z,99828.00
2022-12-31T12:12:00.620Z,99862.34
2022-12-31T12:14:33.362Z,99864.75
2022-12-31T12:17:05.208Z,99874.94
2022-12-31T12:19:35.728Z,99878.13
2022-12-31T12:22:14.527Z,99890.19
2022-12-31T12:24:54.524Z,99891.53
2022-12-31T12:27:24.653Z,99895.00
2022-12-31T12:29:52.508Z,99898.47
2022-12-31T12:32:22.529Z,99882.41
2022-12-31T12:34:50.466Z,99892.59
2022-12-31T12:37:29.441Z,99905.69
2022-12-31T12:39:59.019Z,99907.56
2022-12-31T12:42:26.759Z,99893.91
2022-12-31T12:45:07.311Z,99875.44
2022-12-31T12:47:36.059Z,99895.25
2022-12-31T12:50:04.616Z,99886.41
2022-12-31T12:52:59.563Z,99856.72
2022-12-31T12:55:37.995Z,99850.84
2022-12-31T12:58:19.461Z,99870.38
2022-12-31T13:00:57.823Z,99861.53
2022-12-31T13:04:32.600Z,99833.44
2022-12-31T13:07:01.113Z,99838.25
2022-12-31T13:09:46.717Z,99816.28
2022-12-31T13:12:21.819Z,99847.09
2022-12-31T13:14:57.267Z,99826.47
2022-12-31T13:17:42.473Z,99837.19
2022-12-31T13:20:16.520Z,99819.75
2022-12-31T13:22:48.215Z,99818.19
2022-12-31T13:25:29.611Z,99821.94
2022-12-31T13:28:03.716Z,99839.59
2022-12-31T13:30:37.404Z,99852.97
2022-12-31T13:33:08.609Z,99822.19
2022-12-31T13:35:44.879Z,99837.97
2022-12-31T13:38:18.622Z,99846.81
2022-12-31T13:40:55.222Z,99830.75
2022-12-31T13:43:33.746Z,99849.50
2022-12-31T13:46:10.975Z,99835.03
2022-12-31T13:48:45.937Z,99840.66
2022-12-31T13:51:20.129Z,99840.94
2022-12-31T13:53:54.572Z,99830.75
2022-12-31T13:56:27.294Z,99818.47
2022-12-31T13:59:02.036Z,99784.75
2022-12-31T14:01:36.217Z,99779.13
2022-12-31T14:04:12.895Z,99819.53
2022-12-31T14:06:47.782Z,99814.19
2022-12-31T14:09:20.790Z,99825.13
2022-12-31T14:12:08.601Z,99809.63
2022-12-31T14:14:44.799Z,99791.97
2022-12-31T14:17:21.408Z,99857.25
2022-12-31T14:20:01.547Z,99855.13
2022-12-31T14:22:38.003Z,99858.31
2022-12-31T14:25:16.688Z,99852.97
2022-12-31T14:27:48.432Z,99843.34
2022-12-31T14:30:19.402Z,99857.53
2022-12-31T14:33:11.911Z,99854.06
2022-12-31T14:36:04.003Z,99848.69
2022-12-31T14:38:49.110Z,99835.59
2022-12-31T14:41:29.891Z,99842.25
2022-12-31T14:44:08.447Z,99841.75
2022-12-31T14:46:44.073Z,99824.06
2022-12-31T14:49:27.761Z,99816.03
2022-12-31T14:51:55.565Z,99847.09
2022-12-31T14:54:29.053Z,99847.09
2022-12-31T14:56:57.092Z,99818.97
2022-12-31T14:59:29.282Z,99840.16
2022-12-31T15:01:58.854Z,99805.88
2022-12-31T15:04:33.497Z,99820.84
2022-12-31T15:07:12.191Z,99816.06
2022-12-31T15:09:57.816Z,99821.41
2022-12-31T15:12:44.385Z,99824.59
2022-12-31T15:15:48.255Z,99839.31
2022-12-31T15:18:42.470Z,99821.13
2022-12-31T15:21:41.992Z,99768.66
2022-12-31T15:24:21.191Z,99819.50
2022-12-31T15:26:53.229Z,99825.69
2022-12-31T15:29:28.126Z,99837.97
2022-12-31T15:31:58.913Z,99823.00
2022-12-31T15:34:30.996Z,99832.63
2022-12-31T15:37:00.994Z,99839.06
2022-12-31T15:39:39.791Z,99852.97
2022-12-31T15:42:39.999Z,99821.66
2022-12-31T15:45:17.331Z,99810.09
2022-12-31T15:47:50.224Z,99799.41
2022-12-31T15:50:22.813Z,99836.91
2022-12-31T15:52:55.423Z,99837.47
2022-12-31T15:55:30.129Z,99814.41
2022-12-31T15:58:02.951Z,99782.06
2022-12-31T16:00:44.872Z,99771.31
2022-12-31T16:03:23.495Z,99791.94
2022-12-31T16:05:55.141Z,99799.44
2022-12-31T16:08:33.116Z,99809.06
2022-12-31T16:11:01.547Z,99821.41
2022-12-31T16:13:30.971Z,99801.31
2022-12-31T16:16:03.631Z,99778.25
2022-12-31T16:18:38.497Z,99768.09
2022-12-31T16:24:28.785Z,99813.09
2022-12-31T16:27:01.403Z,99764.63
2022-12-31T16:29:30.782Z,99767.81
2022-12-31T16:31:58.803Z,99781.78
2022-12-31T16:34:28.391Z,99803.94
2022-12-31T16:36:59.527Z,99792.97
2022-12-31T16:39:31.554Z,99785.75
2022-12-31T16:42:15.960Z,99762.75
2022-12-31T16:44:44.559Z,99773.72
2022-12-31T16:47:19.158Z,99797.53
2022-12-31T16:49:50.313Z,99789.50
2022-12-31T16:52:28.391Z,99783.34
2022-12-31T16:54:57.906Z,99783.34
2022-12-31T16:57:28.247Z,99796.19
2022-12-31T17:00:00.552Z,99798.31
2022-12-31T17:02:38.496Z,99778.50
2022-12-31T17:05:20.020Z,99794.53
2022-12-31T17:07:49.281Z,99748.25
2022-12-31T17:10:23.173Z,99768.88
2022-12-31T17:15:46.288Z,99753.41
2022-12-31T17:18:19.931Z,99741.91
2022-12-31T17:20:49.098Z,99729.56
2022-12-31T17:23:24.617Z,99758.75
2022-12-31T17:26:00.279Z,99765.69
2022-12-31T17:28:30.112Z,99765.69
2022-12-31T17:31:21.591Z,99763.28
2022-12-31T17:33:54.972Z,99743.72
2022-12-31T17:36:25.125Z,99729.31
2022-12-31T17:38:53.149Z,99735.50
2022-12-31T17:41:27.352Z,99736.81
2022-12-31T17:43:56.891Z,99761.44
2022-12-31T17:46:26.762Z,99768.91
2022-12-31T17:49:00.495Z,99764.63
2022-12-31T17:51:28.661Z,99774.25
2022-12-31T17:53:56.709Z,99774.00
2022-12-31T17:56:24.405Z,99776.66
2022-12-31T17:58:54.958Z,99770.50
2022-12-31T18:01:24.693Z,99762.47
2022-12-31T18:03:52.569Z,99757.66
2022-12-31T18:06:21.791Z,99757.94
2022-12-31T18:08:49.840Z,99752.59
2022-12-31T18:11:19.894Z,99789.22
2022-12-31T18:13:50.317Z,99761.94
2022-12-31T18:16:18.632Z,99769.16
2022-12-31T18:18:46.456Z,99776.13
2022-12-31T18:21:19.486Z,99785.75
2022-12-31T18:23:49.651Z,99790.28
2022-12-31T18:26:19.340Z,99745.88
2022-12-31T18:28:48.073Z,99790.28
2022-12-31T18:31:17.980Z,99804.72
2022-12-31T18:33:47.571Z,99783.63
2022-12-31T18:36:17.100Z,99782.25
2022-12-31T18:38:45.268Z,99772.09
2022-12-31T18:41:18.981Z,99811.69
2022-12-31T18:43:47.440Z,99805.31
2022-12-31T18:46:17.205Z,99809.56
2022-12-31T18:48:46.087Z,99794.56
2022-12-31T18:51:15.870Z,99815.44
2022-12-31T18:53:43.870Z,99800.75
2022-12-31T18:56:14.255Z,99813.28
2022-12-31T18:58:44.076Z,99817.84
2022-12-31T19:01:26.741Z,99825.59
2022-12-31T19:03:55.847Z,99826.63
2022-12-31T19:06:23.902Z,99838.69
2022-12-31T19:08:52.746Z,99847.00
2022-12-31T19:11:21.894Z,99859.81
2022-12-31T19:13:51.451Z,99855.56
2022-12-31T19:16:20.674Z,99849.69
2022-12-31T19:18:49.580Z,99853.94
2022-12-31T19:21:20.696Z,99842.66
2022-12-31T19:23:48.515Z,99860.09
2022-12-31T19:26:18.344Z,99857.69
2022-12-31T19:28:47.875Z,99853.38
2022-12-31T19:31:18.033Z,99851.53
2022-12-31T19:33:46.361Z,99872.41
2022-12-31T19:36:16.573Z,99860.91
2022-12-31T19:38:45.370Z,99868.41
2022-12-31T19:41:18.202Z,99885.53
2022-12-31T19:43:46.331Z,99890.31
2022-12-31T19:46:17.007Z,99892.44
2022-12-31T19:48:46.303Z,99871.06
2022-12-31T19:51:18.056Z,99885.25
2022-12-31T19:53:47.024Z,99886.00
2022-12-31T19:56:16.625Z,99905.03
2022-12-31T19:58:44.984Z,99882.00
2022-12-31T20:01:21.652Z,99906.91
2022-12-31T20:03:51.292Z,99894.59
2022-12-31T20:06:20.259Z,99892.69
2022-12-31T20:08:48.277Z,99861.97
2022-12-31T20:11:18.715Z,99891.91
2022-12-31T20:13:47.540Z,99898.34
2022-12-31T20:16:18.588Z,99899.13
2022-12-31T20:18:48.712Z,99890.03
2022-12-31T20:21:19.041Z,99897.25
2022-12-31T20:23:47.195Z,99890.03
2022-12-31T20:26:15.066Z,99904.78
2022-12-31T20:28:43.381Z,99897.28
2022-12-31T20:31:13.554Z,99872.09
2022-12-31T20:33:41.715Z,99860.31
2022-12-31T20:36:13.302Z,99905.09
2022-12-31T20:38:41.541Z,99900.75
2022-12-31T20:41:12.237Z,99893.50
2022-12-31T20:43:40.514Z,99884.41
2022-12-31T20:46:14.496Z,99899.16
2022-12-31T20:48:44.185Z,99906.66
2022-12-31T20:51:14.157Z,99899.94
2022-12-31T20:53:47.632Z,99908.25
2022-12-31T20:56:15.602Z,99897.03
2022-12-31T20:58:43.424Z,99917.63
2022-12-31T21:01:13.126Z,99899.41
2022-12-31T21:06:32.823Z,99903.41
2022-12-31T21:09:01.893Z,99891.81
2022-12-31T21:11:47.503Z,99913.03
2022-12-31T21:14:15.615Z,99913.84
2022-12-31T21:16:43.598Z,99922.13
2022-12-31T21:19:12.284Z,99909.81
2022-12-31T21:21:41.618Z,99925.56
2022-12-31T21:24:09.782Z,99906.56
2022-12-31T21:26:38.157Z,99931.75
2022-12-31T21:29:06.048Z,99903.31
2022-12-31T21:31:33.972Z,99930.13
2022-12-31T21:34:02.397Z,99948.63
2022-12-31T21:36:30.174Z,99901.75
2022-12-31T21:38:59.354Z,99926.66
2022-12-31T21:41:45.125Z,99904.41
2022-12-31T21:44:12.805Z,99923.75
2022-12-31T21:46:54.559Z,99909.53
2022-12-31T21:49:28.961Z,99933.09
2022-12-31T21:52:13.908Z,99937.94
2022-12-31T21:55:01.101Z,99925.09
2022-12-31T21:57:28.842Z,99901.50
2022-12-31T22:00:40.897Z,99911.41
2022-12-31T22:03:20.832Z,99923.44
2022-12-31T22:05:51.175Z,99914.38
2022-12-31T22:08:21.017Z,99906.09
2022-12-31T22:10:52.742Z,99929.41
2022-12-31T22:13:21.435Z,99915.53
2022-12-31T22:15:56.385Z,99917.34
2022-12-31T22:18:29.309Z,99902.63
2022-12-31T22:21:10.834Z,99949.81
2022-12-31T22:23:44.209Z,99946.03
2022-12-31T22:26:15.642Z,99951.41
2022-12-31T22:28:45.458Z,99942.84
2022-12-31T22:34:49.789Z,99939.66
2022-12-31T22:37:46.445Z,99883.91
2022-12-31T22:40:07.070Z,99957.06
2022-12-31T22:42:36.527Z,99951.44
2022-12-31T22:45:04.611Z,99947.97
2022-12-31T22:47:32.787Z,99953.88
2022-12-31T22:50:00.635Z,99918.22
2022-12-31T22:52:28.655Z,99974.47
2022-12-31T22:54:56.963Z,99976.06
2022-12-31T22:57:24.728Z,99977.16
2022-12-31T22:59:53.970Z,99984.66
2022-12-31T23:02:21.962Z,99946.59
2022-12-31T23:04:50.030Z,99972.88
2022-12-31T23:07:17.934Z,100003.41
2022-12-31T23:10:03.605Z,99964.03
2022-12-31T23:12:31.488Z,99984.09
2022-12-31T23:15:18.527Z,99984.38
2022-12-31T23:18:03.556Z,99992.69
2022-12-31T23:20:49.144Z,99991.06
2022-12-31T23:23:17.933Z,99980.59
2022-12-31T23:25:49.100Z,99986.25
2022-12-31T23:28:19.719Z,99981.41
2022-12-31T23:30:49.652Z,99966.94
2022-12-31T23:33:19.765Z,99962.09
2022-12-31T23:35:47.911Z,99992.09
2022-12-31T23:38:18.132Z,99998.25
2022-12-31T23:40:46.377Z,99949.63
2022-12-31T23:43:22.671Z,99981.03
2022-12-31T23:45:52.891Z,99956.09
2022-12-31T23:48:21.091Z,99982.31
2022-12-31T23:50:53.611Z,99992.44
2022-12-31T23:53:22.571Z,99970.78
2022-12-31T23:55:50.984Z,99991.66
2022-12-31T23:58:18.992Z,99989.25
